createdAt,value
2023-01-28T00:00:38.078Z,-0.66
2023-01-28T00:03:04.726Z,-0.63
2023-01-28T00:05:31.388Z,-0.64
2023-01-28T00:07:58.065Z,-0.63
2023-01-28T00:10:24.685Z,-0.57
2023-01-28T00:12:51.302Z,-0.63
2023-01-28T00:15:17.986Z,-0.60
2023-01-28T00:17:44.600Z,-0.65
2023-01-28T00:20:11.480Z,-0.63
2023-01-28T00:22:38.090Z,-0.63
2023-01-28T00:25:05.234Z,-0.66
2023-01-28T00:27:31.864Z,-0.62
2023-01-28T00:29:58.455Z,-0.62
2023-01-28T00:32:25.140Z,-0.60
2023-01-28T00:34:52.881Z,-0.61
2023-01-28T00:37:19.525Z,-0.63
2023-01-28T00:39:46.764Z,-0.62
2023-01-28T00:42:13.393Z,-0.62
2023-01-28T00:44:40.054Z,-0.63
2023-01-28T00:47:06.670Z,-0.64
2023-01-28T00:49:33.321Z,-0.62
2023-01-28T00:51:59.963Z,-0.64
2023-01-28T00:54:26.618Z,-0.62
2023-01-28T00:56:53.652Z,-0.58
2023-01-28T00:59:20.480Z,-0.55
2023-01-28T01:01:47.545Z,-0.55
2023-01-28T01:04:14.233Z,-0.53
2023-01-28T01:06:40.925Z,-0.59
2023-01-28T01:09:08.924Z,-0.64
2023-01-28T01:11:35.590Z,-0.61
2023-01-28T01:14:04.088Z,-0.65
2023-01-28T01:16:33.303Z,-0.60
2023-01-28T01:19:00.338Z,-0.54
2023-01-28T01:21:30.555Z,-0.53
2023-01-28T01:23:57.230Z,-0.51
2023-01-28T01:26:23.943Z,-0.53
2023-01-28T01:28:53.560Z,-0.60
2023-01-28T01:31:20.981Z,-0.57
2023-01-28T01:33:48.813Z,-0.61
2023-01-28T01:36:16.782Z,-0.60
2023-01-28T01:38:44.573Z,-0.60
2023-01-28T01:41:22.279Z,-0.56
2023-01-28T01:43:52.756Z,-0.60
2023-01-28T01:46:27.425Z,-0.71
2023-01-28T01:48:54.969Z,-0.69
2023-01-28T01:51:24.199Z,-0.71
2023-01-28T01:53:52.208Z,-0.72
2023-01-28T01:56:21.682Z,-0.76
2023-01-28T01:58:49.588Z,-0.78
2023-01-28T02:01:16.432Z,-0.78
2023-01-28T02:04:01.792Z,-0.80
2023-01-28T02:06:28.487Z,-0.80
2023-01-28T02:08:55.783Z,-0.85
2023-01-28T02:11:24.257Z,-0.84
2023-01-28T02:13:51.289Z,-0.88
2023-01-28T02:16:17.942Z,-0.88
2023-01-28T02:18:44.671Z,-0.83
2023-01-28T02:21:43.627Z,-0.89
2023-01-28T02:24:33.236Z,-0.93
2023-01-28T02:27:16.383Z,-0.94
2023-01-28T02:29:46.164Z,-0.96
2023-01-28T02:32:40.090Z,-0.95
2023-01-28T02:35:14.438Z,-0.90
2023-01-28T02:37:47.168Z,-0.96
2023-01-28T02:40:16.785Z,-0.93
2023-01-28T02:42:45.654Z,-0.83
2023-01-28T02:45:22.597Z,-0.86
2023-01-28T02:47:58.334Z,-0.94
2023-01-28T02:50:55.470Z,-0.98
2023-01-28T02:53:43.854Z,-0.94
2023-01-28T02:56:29.487Z,-0.99
2023-01-28T02:59:32.230Z,-0.92
2023-01-28T03:02:21.310Z,-0.90
2023-01-28T03:04:50.370Z,-0.93
2023-01-28T03:07:18.305Z,-0.93
2023-01-28T03:09:45.819Z,-0.94
2023-01-28T03:12:40.935Z,-0.94
2023-01-28T03:15:27.393Z,-0.82
2023-01-28T03:18:17.263Z,-0.86
2023-01-28T03:21:14.682Z,-0.88
2023-01-28T03:24:19.776Z,-0.82
2023-01-28T03:27:29.077Z,-0.71
2023-01-28T03:30:21.844Z,-0.75
2023-01-28T03:33:07.727Z,-0.78
2023-01-28T03:35:53.288Z,-0.55
2023-01-28T03:38:22.943Z,-0.37
2023-01-28T03:40:58.422Z,-0.71
2023-01-28T03:43:25.079Z,-0.64
2023-01-28T03:45:53.723Z,-0.77
2023-01-28T03:48:21.514Z,-0.74
2023-01-28T03:50:48.467Z,-0.81
2023-01-28T03:53:16.832Z,-0.79
2023-01-28T03:55:49.427Z,-0.82
2023-01-28T03:58:16.207Z,-0.74
2023-01-28T04:00:43.733Z,-0.81
2023-01-28T04:03:19.030Z,-0.71
2023-01-28T04:06:05.036Z,-0.68
2023-01-28T04:08:59.287Z,-0.71
2023-01-28T04:11:50.940Z,-0.79
2023-01-28T04:14:24.140Z,-0.72
2023-01-28T04:16:55.055Z,-0.79
2023-01-28T04:19:23.364Z,-0.83
2023-01-28T04:21:53.954Z,-0.86
2023-01-28T04:24:21.659Z,-0.77
2023-01-28T04:26:48.601Z,-0.94
2023-01-28T04:29:15.877Z,-0.95
2023-01-28T04:31:42.692Z,-1.01
2023-01-28T04:34:33.698Z,-1.03
2023-01-28T04:37:26.451Z,-1.02
2023-01-28T04:40:12.112Z,-1.10
2023-01-28T04:43:01.767Z,-1.14
2023-01-28T04:45:54.609Z,-1.16
2023-01-28T04:48:39.468Z,-1.19
2023-01-28T04:51:15.009Z,-1.11
2023-01-28T04:54:10.581Z,-1.23
2023-01-28T04:56:38.031Z,-1.24
2023-01-28T04:59:04.826Z,-1.26
2023-01-28T05:01:32.945Z,-1.23
2023-01-28T05:04:05.359Z,-1.28
2023-01-28T05:06:34.193Z,-1.27
2023-01-28T05:09:12.558Z,-1.27
2023-01-28T05:11:40.062Z,-1.40
2023-01-28T05:14:07.708Z,-1.36
2023-01-28T05:16:46.475Z,-1.34
2023-01-28T05:19:13.559Z,-1.42
2023-01-28T05:21:42.227Z,-1.40
2023-01-28T05:24:17.885Z,-1.43
2023-01-28T05:26:44.793Z,-1.43
2023-01-28T05:33:16.909Z,-1.55
2023-01-28T05:35:43.643Z,-1.65
2023-01-28T05:38:10.567Z,-1.67
2023-01-28T05:40:37.812Z,-1.69
2023-01-28T05:43:04.739Z,-1.71
2023-01-28T05:45:38.647Z,-1.74
2023-01-28T05:48:09.560Z,-1.75
2023-01-28T05:50:50.039Z,-1.77
2023-01-28T05:53:21.358Z,-1.81
2023-01-28T05:55:49.782Z,-1.91
2023-01-28T05:58:17.458Z,-1.94
2023-01-28T06:00:44.110Z,-1.95
2023-01-28T06:03:11.452Z,-1.95
2023-01-28T06:05:38.289Z,-1.97
2023-01-28T06:08:05.423Z,-1.93
2023-01-28T06:10:32.343Z,-2.00
2023-01-28T06:12:59.081Z,-2.03
2023-01-28T06:15:36.246Z,-1.94
2023-01-28T06:18:23.180Z,-1.99
2023-01-28T06:20:51.008Z,-2.03
2023-01-28T06:23:17.684Z,-2.06
2023-01-28T06:25:44.374Z,-2.03
2023-01-28T06:28:13.316Z,-2.01
2023-01-28T06:30:40.106Z,-2.09
2023-01-28T06:33:07.295Z,-2.06
2023-01-28T06:35:34.000Z,-2.03
2023-01-28T06:38:00.693Z,-1.89
2023-01-28T06:40:27.278Z,-2.05
2023-01-28T06:42:53.891Z,-2.19
2023-01-28T06:45:20.536Z,-2.18
2023-01-28T06:47:47.476Z,-2.14
2023-01-28T06:50:14.452Z,-2.15
2023-01-28T06:52:41.855Z,-2.27
2023-01-28T06:55:08.907Z,-2.25
2023-01-28T06:57:38.559Z,-2.27
2023-01-28T07:00:10.545Z,-2.33
2023-01-28T07:02:37.617Z,-2.32
2023-01-28T07:05:05.086Z,-2.40
2023-01-28T07:07:31.733Z,-2.45
2023-01-28T07:09:58.385Z,-2.44
2023-01-28T07:12:25.041Z,-2.52
2023-01-28T07:14:51.625Z,-2.45
2023-01-28T07:17:18.401Z,-2.54
2023-01-28T07:19:45.050Z,-2.51
2023-01-28T07:22:11.685Z,-2.54
2023-01-28T07:24:38.266Z,-2.55
2023-01-28T07:27:04.939Z,-2.44
2023-01-28T07:29:31.616Z,-2.51
2023-01-28T07:31:58.331Z,-2.59
2023-01-28T07:34:25.426Z,-2.58
2023-01-28T07:36:52.049Z,-2.54
2023-01-28T07:39:18.652Z,-2.47
2023-01-28T07:41:45.358Z,-2.19
2023-01-28T07:44:30.315Z,-2.71
2023-01-28T07:46:57.018Z,-2.76
2023-01-28T07:49:23.645Z,-2.81
2023-01-28T07:51:51.023Z,-2.81
2023-01-28T07:54:17.639Z,-2.81
2023-01-28T07:56:44.265Z,-2.76
2023-01-28T07:59:10.934Z,-2.52
2023-01-28T08:01:37.604Z,-2.70
2023-01-28T08:04:04.694Z,-2.58
2023-01-28T08:06:31.558Z,-2.79
2023-01-28T08:08:58.207Z,-2.82
2023-01-28T08:11:24.825Z,-2.68
2023-01-28T08:13:51.493Z,-2.68
2023-01-28T08:16:18.143Z,-2.59
2023-01-28T08:18:44.797Z,-2.57
2023-01-28T08:21:11.427Z,-2.67
2023-01-28T08:23:38.146Z,-2.56
2023-01-28T08:26:04.786Z,-2.71
2023-01-28T08:28:32.104Z,-2.73
2023-01-28T08:31:01.734Z,-2.87
2023-01-28T08:33:28.493Z,-2.74
2023-01-28T08:35:55.258Z,-2.81
2023-01-28T08:38:21.951Z,-2.82
2023-01-28T08:40:50.526Z,-2.83
2023-01-28T08:43:17.201Z,-2.99
2023-01-28T08:45:43.796Z,-2.83
2023-01-28T08:48:11.756Z,-3.00
2023-01-28T08:50:38.595Z,-2.86
2023-01-28T08:53:10.044Z,-2.96
2023-01-28T08:55:36.506Z,-2.83
2023-01-28T08:58:03.434Z,-2.97
2023-01-28T09:00:29.881Z,-2.92
2023-01-28T09:02:56.432Z,-2.94
2023-01-28T09:05:23.077Z,-3.07
2023-01-28T09:07:49.877Z,-2.83
2023-01-28T09:10:17.186Z,-2.91
2023-01-28T09:12:44.192Z,-2.90
2023-01-28T09:15:10.957Z,-2.96
2023-01-28T09:17:37.750Z,-2.95
2023-01-28T09:20:05.380Z,-3.05
2023-01-28T09:22:32.504Z,-3.01
2023-01-28T09:24:59.140Z,-2.97
2023-01-28T09:27:25.775Z,-2.94
2023-01-28T09:29:52.372Z,-2.97
2023-01-28T09:32:19.570Z,-3.02
2023-01-28T09:34:46.151Z,-2.96
2023-01-28T09:37:12.813Z,-2.94
2023-01-28T09:39:39.786Z,-2.97
2023-01-28T09:42:43.442Z,-2.86
2023-01-28T09:45:16.767Z,-2.89
2023-01-28T09:47:57.076Z,-2.81
2023-01-28T09:50:32.535Z,-2.96
2023-01-28T09:53:19.563Z,-2.88
2023-01-28T09:55:47.771Z,-2.72
2023-01-28T09:58:16.480Z,-2.76
2023-01-28T10:01:08.502Z,-2.96
2023-01-28T10:03:54.795Z,-2.78
2023-01-28T10:06:26.479Z,-2.87
2023-01-28T10:09:06.199Z,-2.79
2023-01-28T10:11:46.428Z,-2.84
2023-01-28T10:14:20.101Z,-2.64
2023-01-28T10:17:16.578Z,-2.72
2023-01-28T10:19:45.680Z,-2.67
2023-01-28T10:22:20.767Z,-2.59
2023-01-28T10:24:49.689Z,-2.61
2023-01-28T10:27:23.491Z,-2.53
2023-01-28T10:29:50.521Z,-2.40
2023-01-28T10:32:36.867Z,-2.59
2023-01-28T10:35:03.707Z,-2.54
2023-01-28T10:37:36.585Z,-2.32
2023-01-28T10:40:04.101Z,-2.68
2023-01-28T10:42:37.844Z,-2.58
2023-01-28T10:45:23.872Z,-2.53
2023-01-28T10:47:55.081Z,-2.62
2023-01-28T10:50:27.103Z,-2.50
2023-01-28T10:53:01.127Z,-2.53
2023-01-28T10:55:30.394Z,-2.40
2023-01-28T10:57:57.047Z,-2.45
2023-01-28T11:00:26.155Z,-2.59
2023-01-28T11:02:52.873Z,-2.64
2023-01-28T11:05:21.800Z,-2.50
2023-01-28T11:07:50.040Z,-2.35
2023-01-28T11:10:29.298Z,-2.64
2023-01-28T11:12:56.922Z,-2.54
2023-01-28T11:15:23.513Z,-2.67
2023-01-28T11:17:57.529Z,-2.63
2023-01-28T11:20:25.685Z,-2.68
2023-01-28T11:22:52.311Z,-2.51
2023-01-28T11:25:32.763Z,-2.59
2023-01-28T11:28:00.739Z,-2.59
2023-01-28T11:30:33.974Z,-2.62
2023-01-28T11:33:08.342Z,-2.62
2023-01-28T11:35:34.963Z,-2.53
2023-01-28T11:38:01.649Z,-2.94
2023-01-28T11:40:28.569Z,-2.89
2023-01-28T11:42:58.423Z,-2.85
2023-01-28T11:45:48.651Z,-2.92
2023-01-28T11:48:30.282Z,-2.69
2023-01-28T11:51:04.947Z,-2.81
2023-01-28T11:54:02.313Z,-2.85
2023-01-28T11:56:53.670Z,-2.75
2023-01-28T11:59:57.975Z,-2.79
2023-01-28T12:02:44.727Z,-2.75
2023-01-28T12:05:32.564Z,-2.86
2023-01-28T12:08:20.521Z,-2.92
2023-01-28T12:11:47.776Z,-2.91
2023-01-28T12:14:19.583Z,-2.77
2023-01-28T12:16:51.234Z,-2.78
2023-01-28T12:19:29.979Z,-2.55
2023-01-28T12:22:06.631Z,-2.77
2023-01-28T12:25:05.547Z,-2.89
2023-01-28T12:27:57.075Z,-2.90
2023-01-28T12:30:29.590Z,-2.73
2023-01-28T12:33:19.789Z,-2.70
2023-01-28T12:36:13.384Z,-2.67
2023-01-28T12:39:10.412Z,-2.65
2023-01-28T12:41:43.019Z,-2.51
2023-01-28T12:44:15.350Z,-2.46
2023-01-28T12:47:04.242Z,-2.44
2023-01-28T12:49:45.445Z,-2.45
2023-01-28T12:52:24.283Z,-2.64
2023-01-28T12:55:13.241Z,-2.72
2023-01-28T12:57:40.165Z,-2.41
2023-01-28T13:00:25.216Z,-2.46
2023-01-28T13:03:09.821Z,-2.54
2023-01-28T13:05:45.858Z,-2.72
2023-01-28T13:08:26.006Z,-2.77
2023-01-28T13:10:52.848Z,-2.65
2023-01-28T13:13:28.270Z,-2.74
2023-01-28T13:15:54.942Z,-2.30
2023-01-28T13:18:40.602Z,-2.71
2023-01-28T13:21:12.991Z,-2.63
2023-01-28T13:23:42.625Z,-2.74
2023-01-28T13:26:43.657Z,-2.79
2023-01-28T13:29:25.184Z,-2.68
2023-01-28T13:31:53.324Z,-2.92
2023-01-28T13:34:34.495Z,-2.97
2023-01-28T13:37:07.725Z,-2.87
2023-01-28T13:39:34.578Z,-2.78
2023-01-28T13:42:24.194Z,-2.74
2023-01-28T13:44:50.931Z,-2.79
2023-01-28T13:47:27.203Z,-2.68
2023-01-28T13:50:00.211Z,-2.65
2023-01-28T13:52:29.134Z,-2.54
2023-01-28T13:55:33.258Z,-2.35
2023-01-28T13:58:04.596Z,-2.68
2023-01-28T14:00:49.824Z,-2.37
2023-01-28T14:03:40.502Z,-2.29
2023-01-28T14:06:46.132Z,-2.69
2023-01-28T14:09:33.822Z,-2.75
2023-01-28T14:12:12.620Z,-2.71
2023-01-28T14:15:00.979Z,-2.70
2023-01-28T14:17:42.276Z,-2.66
2023-01-28T14:20:37.631Z,-2.52
2023-01-28T14:23:05.873Z,-2.46
2023-01-28T14:25:35.246Z,-2.51
2023-01-28T14:28:01.844Z,-2.77
2023-01-28T14:30:41.103Z,-2.70
2023-01-28T14:33:08.053Z,-2.82
2023-01-28T14:35:34.737Z,-2.51
2023-01-28T14:38:01.424Z,-2.81
2023-01-28T14:40:28.672Z,-2.76
2023-01-28T14:42:55.447Z,-2.72
2023-01-28T14:45:49.138Z,-2.73
2023-01-28T14:48:23.009Z,-2.75
2023-01-28T14:51:23.714Z,-2.82
2023-01-28T14:54:02.165Z,-2.62
2023-01-28T14:56:42.183Z,-2.68
2023-01-28T14:59:26.883Z,-2.54
2023-01-28T15:02:00.008Z,-2.74
2023-01-28T15:04:26.592Z,-2.33
2023-01-28T15:06:53.371Z,-2.49
2023-01-28T15:09:22.852Z,-2.38
2023-01-28T15:11:51.197Z,-2.16
2023-01-28T15:14:30.676Z,-1.90
2023-01-28T15:16:57.407Z,-2.42
2023-01-28T15:19:29.906Z,-2.25
2023-01-28T15:22:07.043Z,-2.47
2023-01-28T15:24:36.657Z,-2.23
2023-01-28T15:27:03.496Z,-2.43
2023-01-28T15:29:33.059Z,-2.53
2023-01-28T15:32:00.497Z,-2.22
2023-01-28T15:34:30.372Z,-2.50
2023-01-28T15:36:59.804Z,-2.35
2023-01-28T15:39:27.200Z,-2.01
2023-01-28T15:41:53.701Z,-1.67
2023-01-28T15:44:30.302Z,-1.64
2023-01-28T15:47:00.825Z,-2.29
2023-01-28T15:49:38.040Z,-2.35
2023-01-28T15:52:04.870Z,-2.45
2023-01-28T15:54:31.450Z,-2.29
2023-01-28T15:57:08.097Z,-1.92
2023-01-28T15:59:34.825Z,-2.40
2023-01-28T16:02:17.567Z,-1.95
2023-01-28T16:04:44.294Z,-1.88
2023-01-28T16:07:11.089Z,-1.99
2023-01-28T16:09:37.799Z,-1.93
2023-01-28T16:12:08.130Z,-1.99
2023-01-28T16:14:42.677Z,-2.34
2023-01-28T16:17:09.446Z,-2.65
2023-01-28T16:19:45.983Z,-2.65
2023-01-28T16:22:35.464Z,-2.53
2023-01-28T16:25:02.186Z,-2.62
2023-01-28T16:27:29.639Z,-2.58
2023-01-28T16:29:56.245Z,-2.14
2023-01-28T16:32:49.120Z,-1.89
2023-01-28T16:35:20.316Z,-1.62
2023-01-28T16:37:47.019Z,-2.17
2023-01-28T16:40:15.019Z,-2.53
2023-01-28T16:42:42.120Z,-1.99
2023-01-28T16:45:18.046Z,-2.11
2023-01-28T16:47:44.938Z,-1.95
2023-01-28T16:50:12.529Z,-1.89
2023-01-28T16:52:41.855Z,-2.51
2023-01-28T16:55:18.400Z,-2.73
2023-01-28T16:57:45.979Z,-2.82
2023-01-28T17:00:23.515Z,-2.66
2023-01-28T17:02:51.116Z,-2.50
2023-01-28T17:05:18.488Z,-2.66
2023-01-28T17:07:47.141Z,-2.58
2023-01-28T17:10:13.833Z,-2.58
2023-01-28T17:12:40.506Z,-2.48
2023-01-28T17:15:08.518Z,-2.37
2023-01-28T17:17:35.226Z,-2.51
2023-01-28T17:20:01.988Z,-2.50
2023-01-28T17:22:28.706Z,-2.58
2023-01-28T17:24:55.341Z,-2.68
2023-01-28T17:27:22.087Z,-2.75
2023-01-28T17:29:48.715Z,-2.86
2023-01-28T17:32:15.370Z,-2.85
2023-01-28T17:34:42.021Z,-2.63
2023-01-28T17:37:08.797Z,-2.79
2023-01-28T17:39:35.450Z,-2.80
2023-01-28T17:42:02.282Z,-2.84
2023-01-28T17:44:28.974Z,-2.59
2023-01-28T17:46:55.594Z,-2.38
2023-01-28T17:49:22.198Z,-2.11
2023-01-28T17:51:48.908Z,-1.82
2023-01-28T17:54:16.938Z,-1.61
2023-01-28T17:56:43.589Z,-1.70
2023-01-28T17:59:10.328Z,-1.83
2023-01-28T18:01:37.305Z,-1.80
2023-01-28T18:04:04.262Z,-1.71
2023-01-28T18:06:32.188Z,-1.91
2023-01-28T18:08:59.328Z,-1.77
2023-01-28T18:11:26.275Z,-1.55
2023-01-28T18:13:52.880Z,-1.60
2023-01-28T18:16:19.819Z,-1.86
2023-01-28T18:18:47.060Z,-1.91
2023-01-28T18:21:22.600Z,-2.57
2023-01-28T18:23:51.803Z,-2.37
2023-01-28T18:26:18.577Z,-2.48
2023-01-28T18:28:45.263Z,-2.39
2023-01-28T18:31:12.098Z,-2.57
2023-01-28T18:33:38.783Z,-2.62
2023-01-28T18:36:06.616Z,-2.24
2023-01-28T18:38:33.454Z,-1.99
2023-01-28T18:41:00.102Z,-1.77
2023-01-28T18:43:26.818Z,-1.81
2023-01-28T18:45:53.457Z,-1.65
2023-01-28T18:48:20.129Z,-1.64
2023-01-28T18:50:53.223Z,-1.65
2023-01-28T18:53:20.493Z,-1.69
2023-01-28T18:55:47.165Z,-1.89
2023-01-28T18:58:13.792Z,-1.77
2023-01-28T19:00:40.387Z,-2.06
2023-01-28T19:03:07.037Z,-2.20
2023-01-28T19:05:37.510Z,-1.87
2023-01-28T19:08:04.616Z,-1.99
2023-01-28T19:10:31.388Z,-2.65
2023-01-28T19:12:58.062Z,-2.85
2023-01-28T19:15:24.751Z,-2.92
2023-01-28T19:17:51.443Z,-2.89
2023-01-28T19:20:18.556Z,-2.97
2023-01-28T19:22:45.551Z,-2.67
2023-01-28T19:25:12.280Z,-2.39
2023-01-28T19:27:39.349Z,-2.34
2023-01-28T19:30:08.818Z,-2.50
2023-01-28T19:32:35.544Z,-2.33
2023-01-28T19:35:02.194Z,-2.32
2023-01-28T19:37:28.902Z,-2.30
2023-01-28T19:39:55.530Z,-2.14
2023-01-28T19:42:22.253Z,-2.04
2023-01-28T19:44:48.979Z,-2.35
2023-01-28T19:47:15.999Z,-2.41
2023-01-28T19:49:42.675Z,-2.11
2023-01-28T19:52:10.920Z,-1.74
2023-01-28T19:54:37.670Z,-2.29
2023-01-28T19:57:04.398Z,-1.97
2023-01-28T19:59:31.066Z,-2.53
2023-01-28T20:01:57.715Z,-2.34
2023-01-28T20:04:24.300Z,-2.58
2023-01-28T20:06:51.170Z,-2.37
2023-01-28T20:09:17.968Z,-2.27
2023-01-28T20:11:44.624Z,-1.96
2023-01-28T20:14:11.627Z,-1.82
2023-01-28T20:16:38.326Z,-1.66
2023-01-28T20:19:06.513Z,-1.68
2023-01-28T20:21:33.468Z,-1.88
2023-01-28T20:24:00.625Z,-1.73
2023-01-28T20:26:31.375Z,-1.63
2023-01-28T20:29:00.249Z,-1.72
2023-01-28T20:31:27.091Z,-1.79
2023-01-28T20:33:54.288Z,-2.36
2023-01-28T20:36:21.020Z,-1.88
2023-01-28T20:38:47.702Z,-1.58
2023-01-28T20:41:20.171Z,-1.78
2023-01-28T20:43:47.118Z,-1.96
2023-01-28T20:46:24.443Z,-2.43
2023-01-28T20:48:52.425Z,-2.17
2023-01-28T20:51:20.766Z,-2.43
2023-01-28T20:53:48.083Z,-2.66
2023-01-28T20:56:16.945Z,-2.73
2023-01-28T20:58:43.899Z,-2.61
2023-01-28T21:01:21.106Z,-2.16
2023-01-28T21:03:48.055Z,-2.09
2023-01-28T21:06:14.851Z,-1.78
2023-01-28T21:08:41.516Z,-1.83
2023-01-28T21:11:08.339Z,-2.08
2023-01-28T21:13:35.534Z,-1.91
2023-01-28T21:16:02.269Z,-1.90
2023-01-28T21:18:29.625Z,-1.97
2023-01-28T21:21:01.605Z,-2.56
2023-01-28T21:23:28.229Z,-2.59
2023-01-28T21:25:54.952Z,-2.46
2023-01-28T21:28:21.664Z,-2.36
2023-01-28T21:30:48.305Z,-2.35
2023-01-28T21:33:14.988Z,-2.26
2023-01-28T21:35:43.280Z,-2.10
2023-01-28T21:38:10.722Z,-1.84
2023-01-28T21:40:37.805Z,-1.83
2023-01-28T21:43:05.161Z,-1.86
2023-01-28T21:45:31.920Z,-1.60
2023-01-28T21:47:58.791Z,-1.61
2023-01-28T21:50:25.539Z,-1.59
2023-01-28T21:52:52.243Z,-1.91
2023-01-28T21:55:19.221Z,-1.93
2023-01-28T21:57:45.937Z,-2.13
2023-01-28T22:00:13.180Z,-2.53
2023-01-28T22:02:40.340Z,-2.25
2023-01-28T22:05:07.322Z,-2.55
2023-01-28T22:07:34.008Z,-2.26
2023-01-28T22:10:00.672Z,-2.17
2023-01-28T22:12:28.153Z,-1.95
2023-01-28T22:14:54.895Z,-1.90
2023-01-28T22:17:21.612Z,-1.84
2023-01-28T22:19:49.464Z,-1.84
2023-01-28T22:22:16.782Z,-1.81
2023-01-28T22:24:43.453Z,-1.94
2023-01-28T22:27:10.338Z,-1.71
2023-01-28T22:29:36.933Z,-1.57
2023-01-28T22:32:04.847Z,-1.54
2023-01-28T22:34:31.720Z,-1.82
2023-01-28T22:36:58.424Z,-1.79
2023-01-28T22:39:25.099Z,-1.85
2023-01-28T22:41:51.821Z,-1.72
2023-01-28T22:44:19.974Z,-1.66
2023-01-28T22:46:47.404Z,-1.61
2023-01-28T22:49:15.114Z,-1.83
2023-01-28T22:51:41.963Z,-1.78
2023-01-28T22:54:10.878Z,-1.65
2023-01-28T22:56:37.934Z,-1.94
2023-01-28T22:59:04.575Z,-2.14
2023-01-28T23:01:31.313Z,-2.28
2023-01-28T23:03:57.983Z,-2.24
2023-01-28T23:06:25.482Z,-1.91
2023-01-28T23:08:52.484Z,-1.86
2023-01-28T23:11:25.611Z,-1.56
2023-01-28T23:14:15.622Z,-2.05
2023-01-28T23:17:00.610Z,-2.02
2023-01-28T23:19:45.797Z,-2.17
2023-01-28T23:22:36.559Z,-2.58
2023-01-28T23:25:03.248Z,-2.41
2023-01-28T23:27:29.862Z,-2.46
2023-01-28T23:29:56.445Z,-2.13
2023-01-28T23:32:23.460Z,-2.19
2023-01-28T23:34:50.108Z,-1.89
2023-01-28T23:37:16.841Z,-1.84
2023-01-28T23:39:43.488Z,-1.99
2023-01-28T23:42:13.590Z,-1.89
2023-01-28T23:44:40.264Z,-2.06
2023-01-28T23:47:07.058Z,-1.93
2023-01-28T23:49:33.866Z,-2.03
2023-01-28T23:52:00.867Z,-2.09
2023-01-28T23:54:27.512Z,-2.04
2023-01-28T23:56:54.260Z,-2.06
2023-01-28T23:59:20.913Z,-2.01
